sensor_id;sensor_type;location;lat;lon;timestamp;pressure;altitude;pressure_sealevel;temperature;humidity
72110;BME280;59983;52.010;5.420;2022-12-29T00:00:15;100018.78;;;10.64;100.00
72110;BME280;59983;52.010;5.420;2022-12-29T00:02:42;100021.13;;;10.66;100.00
72110;BME280;59983;52.010;5.420;2022-12-29T00:05:09;100013.00;;;10.66;100.00
72110;BME280;59983;52.010;5.420;2022-12-29T00:07:35;100001.78;;;10.67;100.00
72110;BME280;59983;52.010;5.420;2022-12-29T00:10:02;100007.66;;;10.69;100.00
72110;BME280;59983;52.010;5.420;2022-12-29T00:12:29;99989.00;;;10.68;100.00
72110;BME280;59983;52.010;5.420;2022-12-29T00:15:16;99997.56;;;10.70;100.00
72110;BME280;59983;52.010;5.420;2022-12-29T00:18:00;99992.94;;;10.70;100.00
72110;BME280;59983;52.010;5.420;2022-12-29T00:20:27;99994.88;;;10.70;100.00
72110;BME280;59983;52.010;5.420;2022-12-29T00:23:12;99980.16;;;10.71;100.00
72110;BME280;59983;52.010;5.420;2022-12-29T00:26:12;99969.69;;;10.69;100.00
72110;BME280;59983;52.010;5.420;2022-12-29T00:28:58;99982.09;;;10.70;100.00
72110;BME280;59983;52.010;5.420;2022-12-29T00:31:43;99973.19;;;10.73;100.00
72110;BME280;59983;52.010;5.420;2022-12-29T00:34:28;99977.84;;;10.73;100.00
72110;BME280;59983;52.010;5.420;2022-12-29T00:37:13;99970.09;;;10.71;100.00
72110;BME280;59983;52.010;5.420;2022-12-29T00:39:39;99961.53;;;10.69;100.00
72110;BME280;59983;52.010;5.420;2022-12-29T00:42:24;99954.19;;;10.70;100.00
72110;BME280;59983;52.010;5.420;2022-12-29T00:45:23;99956.94;;;10.73;100.00
72110;BME280;59983;52.010;5.420;2022-12-29T00:47:50;99950.72;;;10.73;100.00
72110;BME280;59983;52.010;5.420;2022-12-29T00:50:16;99967.03;;;10.76;99.97
72110;BME280;59983;52.010;5.420;2022-12-29T00:52:43;99946.97;;;10.81;99.76
72110;BME280;59983;52.010;5.420;2022-12-29T00:55:09;99945.03;;;10.82;98.83
72110;BME280;59983;52.010;5.420;2022-12-29T00:57:36;99931.44;;;10.78;99.10
72110;BME280;59983;52.010;5.420;2022-12-29T01:00:02;99931.75;;;10.73;100.00
72110;BME280;59983;52.010;5.420;2022-12-29T01:02:29;99935.59;;;10.72;100.00
72110;BME280;59983;52.010;5.420;2022-12-29T01:04:56;99928.25;;;10.72;100.00
72110;BME280;59983;52.010;5.420;2022-12-29T01:07:22;99924.75;;;10.72;100.00
72110;BME280;59983;52.010;5.420;2022-12-29T01:09:49;99937.91;;;10.70;100.00
72110;BME280;59983;52.010;5.420;2022-12-29T01:12:34;99911.50;;;10.67;100.00
72110;BME280;59983;52.010;5.420;2022-12-29T01:15:13;99922.69;;;10.62;100.00
72110;BME280;59983;52.010;5.420;2022-12-29T01:17:40;99912.94;;;10.57;100.00
72110;BME280;59983;52.010;5.420;2022-12-29T01:20:07;99945.09;;;10.59;100.00
72110;BME280;59983;52.010;5.420;2022-12-29T01:22:33;99926.44;;;10.54;100.00
72110;BME280;59983;52.010;5.420;2022-12-29T01:25:00;99919.38;;;10.45;100.00
72110;BME280;59983;52.010;5.420;2022-12-29T01:27:26;99918.09;;;10.39;100.00
72110;BME280;59983;52.010;5.420;2022-12-29T01:29:53;99907.22;;;10.36;100.00
72110;BME280;59983;52.010;5.420;2022-12-29T01:32:19;99907.22;;;10.36;100.00
72110;BME280;59983;52.010;5.420;2022-12-29T01:34:46;99897.56;;;10.38;100.00
72110;BME280;59983;52.010;5.420;2022-12-29T01:37:12;99910.38;;;10.41;100.00
72110;BME280;59983;52.010;5.420;2022-12-29T01:39:39;99889.47;;;10.42;100.00
72110;BME280;59983;52.010;5.420;2022-12-29T01:42:13;99898.75;;;10.41;100.00
72110;BME280;59983;52.010;5.420;2022-12-29T01:44:50;99913.06;;;10.38;100.00
72110;BME280;59983;52.010;5.420;2022-12-29T01:49:56;99910.59;;;10.29;100.00
72110;BME280;59983;52.010;5.420;2022-12-29T01:52:27;99910.25;;;10.31;100.00
72110;BME280;59983;52.010;5.420;2022-12-29T01:54:56;99911.03;;;10.31;100.00
72110;BME280;59983;52.010;5.420;2022-12-29T01:57:29;99916.44;;;10.31;100.00
72110;BME280;59983;52.010;5.420;2022-12-29T02:00:01;99920.19;;;10.23;100.00
72110;BME280;59983;52.010;5.420;2022-12-29T02:02:30;99920.00;;;10.12;100.00
72110;BME280;59983;52.010;5.420;2022-12-29T02:05:01;99937.38;;;10.08;100.00
72110;BME280;59983;52.010;5.420;2022-12-29T02:07:31;99910.19;;;10.04;100.00
72110;BME280;59983;52.010;5.420;2022-12-29T02:09:58;99904.75;;;10.01;100.00
72110;BME280;59983;52.010;5.420;2022-12-29T02:12:26;99910.97;;;10.05;100.00
72110;BME280;59983;52.010;5.420;2022-12-29T02:14:56;99906.72;;;10.04;100.00
72110;BME280;59983;52.010;5.420;2022-12-29T02:23:34;99914.03;;;10.00;100.00
72110;BME280;59983;52.010;5.420;2022-12-29T02:31:49;99909.00;;;10.02;100.00
72110;BME280;59983;52.010;5.420;2022-12-29T02:34:31;99916.25;;;9.94;100.00
72110;BME280;59983;52.010;5.420;2022-12-29T02:37:10;99918.94;;;9.94;100.00
72110;BME280;59983;52.010;5.420;2022-12-29T02:40:14;99900.00;;;9.94;100.00
72110;BME280;59983;52.010;5.420;2022-12-29T02:42:50;99919.69;;;9.91;100.00
72110;BME280;59983;52.010;5.420;2022-12-29T02:45:56;99922.75;;;9.89;100.00
72110;BME280;59983;52.010;5.420;2022-12-29T02:50:59;99916.91;;;9.87;100.00
72110;BME280;59983;52.010;5.420;2022-12-29T02:53:27;99909.50;;;9.84;100.00
72110;BME280;59983;52.010;5.420;2022-12-29T02:56:13;99905.25;;;9.83;100.00
72110;BME280;59983;52.010;5.420;2022-12-29T02:58:39;99906.84;;;9.88;100.00
72110;BME280;59983;52.010;5.420;2022-12-29T03:04:16;99896.34;;;9.83;100.00
72110;BME280;59983;52.010;5.420;2022-12-29T03:06:59;99928.41;;;9.81;100.00
72110;BME280;59983;52.010;5.420;2022-12-29T03:09:36;99928.06;;;9.82;100.00
72110;BME280;59983;52.010;5.420;2022-12-29T03:15:01;99911.69;;;9.75;100.00
72110;BME280;59983;52.010;5.420;2022-12-29T03:17:57;99900.06;;;9.75;100.00
72110;BME280;59983;52.010;5.420;2022-12-29T03:20:28;99903.56;;;9.75;100.00
72110;BME280;59983;52.010;5.420;2022-12-29T03:23:00;99903.47;;;9.72;100.00
72110;BME280;59983;52.010;5.420;2022-12-29T03:25:33;99912.47;;;9.76;100.00
72110;BME280;59983;52.010;5.420;2022-12-29T03:28:06;99894.66;;;9.75;100.00
72110;BME280;59983;52.010;5.420;2022-12-29T03:30:34;99888.75;;;9.69;100.00
72110;BME280;59983;52.010;5.420;2022-12-29T03:33:03;99886.41;;;9.68;100.00
72110;BME280;59983;52.010;5.420;2022-12-29T03:35:33;99898.69;;;9.61;100.00
72110;BME280;59983;52.010;5.420;2022-12-29T03:38:13;99881.97;;;9.56;100.00
72110;BME280;59983;52.010;5.420;2022-12-29T03:40:46;99883.78;;;9.48;100.00
72110;BME280;59983;52.010;5.420;2022-12-29T03:43:15;99884.84;;;9.44;100.00
72110;BME280;59983;52.010;5.420;2022-12-29T03:45:43;99878.59;;;9.40;100.00
72110;BME280;59983;52.010;5.420;2022-12-29T03:48:10;99869.63;;;9.35;100.00
72110;BME280;59983;52.010;5.420;2022-12-29T03:50:36;99873.41;;;9.31;100.00
72110;BME280;59983;52.010;5.420;2022-12-29T03:53:03;99883.81;;;9.29;100.00
72110;BME280;59983;52.010;5.420;2022-12-29T03:55:29;99881.03;;;9.25;100.00
72110;BME280;59983;52.010;5.420;2022-12-29T03:57:56;99887.59;;;9.24;100.00
72110;BME280;59983;52.010;5.420;2022-12-29T04:00:22;99885.25;;;9.23;100.00
72110;BME280;59983;52.010;5.420;2022-12-29T04:02:49;99881.34;;;9.20;100.00
72110;BME280;59983;52.010;5.420;2022-12-29T04:05:16;99879.47;;;9.24;100.00
72110;BME280;59983;52.010;5.420;2022-12-29T04:07:42;99874.94;;;9.28;100.00
72110;BME280;59983;52.010;5.420;2022-12-29T04:10:09;99878.75;;;9.27;100.00
72110;BME280;59983;52.010;5.420;2022-12-29T04:12:35;99878.09;;;9.34;100.00
72110;BME280;59983;52.010;5.420;2022-12-29T04:15:02;99877.81;;;9.39;100.00
72110;BME280;59983;52.010;5.420;2022-12-29T04:17:29;99877.88;;;9.43;100.00
72110;BME280;59983;52.010;5.420;2022-12-29T04:19:55;99902.22;;;9.43;100.00
72110;BME280;59983;52.010;5.420;2022-12-29T04:22:42;99888.09;;;9.53;100.00
72110;BME280;59983;52.010;5.420;2022-12-29T04:25:09;99880.88;;;9.60;100.00
72110;BME280;59983;52.010;5.420;2022-12-29T04:27:35;99879.31;;;9.59;100.00
72110;BME280;59983;52.010;5.420;2022-12-29T04:30:02;99899.03;;;9.60;100.00
72110;BME280;59983;52.010;5.420;2022-12-29T04:32:28;99923.78;;;9.58;100.00
72110;BME280;59983;52.010;5.420;2022-12-29T04:34:55;99916.16;;;9.64;99.21
72110;BME280;59983;52.010;5.420;2022-12-29T04:37:21;99902.53;;;9.60;99.09
72110;BME280;59983;52.010;5.420;2022-12-29T04:39:48;99949.69;;;9.59;98.44
72110;BME280;59983;52.010;5.420;2022-12-29T04:42:14;99929.25;;;9.62;98.11
72110;BME280;59983;52.010;5.420;2022-12-29T04:44:41;99929.25;;;9.62;97.41
72110;BME280;59983;52.010;5.420;2022-12-29T04:47:10;99947.50;;;9.65;97.17
72110;BME280;59983;52.010;5.420;2022-12-29T04:49:37;99943.63;;;9.66;96.78
72110;BME280;59983;52.010;5.420;2022-12-29T04:52:03;99939.72;;;9.63;97.47
72110;BME280;59983;52.010;5.420;2022-12-29T04:54:30;99927.69;;;9.61;96.49
72110;BME280;59983;52.010;5.420;2022-12-29T04:56:56;99943.88;;;9.57;97.01
72110;BME280;59983;52.010;5.420;2022-12-29T04:59:23;99938.81;;;9.56;96.59
72110;BME280;59983;52.010;5.420;2022-12-29T05:01:49;99947.59;;;9.49;97.69
72110;BME280;59983;52.010;5.420;2022-12-29T05:04:16;99944.09;;;9.49;96.62
72110;BME280;59983;52.010;5.420;2022-12-29T05:06:42;99957.28;;;9.50;96.05
72110;BME280;59983;52.010;5.420;2022-12-29T05:09:09;99962.75;;;9.54;96.09
72110;BME280;59983;52.010;5.420;2022-12-29T05:11:35;99961.63;;;9.55;95.62
72110;BME280;59983;52.010;5.420;2022-12-29T05:14:02;99947.19;;;9.47;96.30
72110;BME280;59983;52.010;5.420;2022-12-29T05:16:28;99959.78;;;9.40;96.81
72110;BME280;59983;52.010;5.420;2022-12-29T05:18:55;99938.88;;;9.36;97.03
72110;BME280;59983;52.010;5.420;2022-12-29T05:21:21;99958.09;;;9.31;96.43
72110;BME280;59983;52.010;5.420;2022-12-29T05:23:48;99956.94;;;9.32;95.83
72110;BME280;59983;52.010;5.420;2022-12-29T05:26:15;99964.28;;;9.32;96.17
72110;BME280;59983;52.010;5.420;2022-12-29T05:28:41;99955.66;;;9.26;96.68
72110;BME280;59983;52.010;5.420;2022-12-29T05:31:08;99981.94;;;9.26;96.48
72110;BME280;59983;52.010;5.420;2022-12-29T05:33:34;99958.09;;;9.31;96.80
72110;BME280;59983;52.010;5.420;2022-12-29T05:36:08;99974.75;;;9.33;96.59
72110;BME280;59983;52.010;5.420;2022-12-29T05:38:35;99964.78;;;9.38;95.01
72110;BME280;59983;52.010;5.420;2022-12-29T05:41:01;99957.34;;;9.34;96.49
72110;BME280;59983;52.010;5.420;2022-12-29T05:43:28;99968.84;;;9.28;96.38
72110;BME280;59983;52.010;5.420;2022-12-29T05:45:55;99968.84;;;9.28;97.04
72110;BME280;59983;52.010;5.420;2022-12-29T05:48:22;99954.88;;;9.26;96.64
72110;BME280;59983;52.010;5.420;2022-12-29T05:50:50;99947.22;;;9.28;97.04
72110;BME280;59983;52.010;5.420;2022-12-29T05:53:17;99948.69;;;9.25;95.52
72110;BME280;59983;52.010;5.420;2022-12-29T05:55:46;99958.13;;;9.35;93.87
72110;BME280;59983;52.010;5.420;2022-12-29T05:58:15;99944.59;;;9.35;93.95
72110;BME280;59983;52.010;5.420;2022-12-29T06:00:42;99959.28;;;9.34;95.07
72110;BME280;59983;52.010;5.420;2022-12-29T06:03:09;99968.19;;;9.34;94.17
72110;BME280;59983;52.010;5.420;2022-12-29T06:05:35;99962.00;;;9.34;93.70
72110;BME280;59983;52.010;5.420;2022-12-29T06:08:02;100019.59;;;9.34;93.33
72110;BME280;59983;52.010;5.420;2022-12-29T06:10:28;99987.56;;;9.36;94.41
72110;BME280;59983;52.010;5.420;2022-12-29T06:12:55;99983.78;;;9.41;93.05
72110;BME280;59983;52.010;5.420;2022-12-29T06:15:21;99987.31;;;9.45;92.65
72110;BME280;59983;52.010;5.420;2022-12-29T06:17:48;99980.03;;;9.46;92.32
72110;BME280;59983;52.010;5.420;2022-12-29T06:20:14;99992.31;;;9.43;93.50
72110;BME280;59983;52.010;5.420;2022-12-29T06:22:42;99988.97;;;9.50;91.92
72110;BME280;59983;52.010;5.420;2022-12-29T06:25:09;99968.47;;;9.49;92.01
72110;BME280;59983;52.010;5.420;2022-12-29T06:27:35;99981.59;;;9.47;92.47
72110;BME280;59983;52.010;5.420;2022-12-29T06:30:02;99987.00;;;9.47;93.07
72110;BME280;59983;52.010;5.420;2022-12-29T06:32:29;99985.06;;;9.47;93.29
72110;BME280;59983;52.010;5.420;2022-12-29T06:34:55;99996.97;;;9.43;94.99
72110;BME280;59983;52.010;5.420;2022-12-29T06:37:22;100009.28;;;9.40;96.00
72110;BME280;59983;52.010;5.420;2022-12-29T06:39:48;100009.56;;;9.35;95.77
72110;BME280;59983;52.010;5.420;2022-12-29T06:42:15;100015.44;;;9.37;94.26
72110;BME280;59983;52.010;5.420;2022-12-29T06:44:41;100025.09;;;9.38;94.99
72110;BME280;59983;52.010;5.420;2022-12-29T06:47:08;100046.66;;;9.34;95.05
72110;BME280;59983;52.010;5.420;2022-12-29T06:49:34;100059.84;;;9.36;93.25
72110;BME280;59983;52.010;5.420;2022-12-29T06:52:01;100046.25;;;9.32;94.95
72110;BME280;59983;52.010;5.420;2022-12-29T06:54:37;100064.34;;;9.28;92.88
72110;BME280;59983;52.010;5.420;2022-12-29T06:57:04;100039.69;;;9.14;93.04
72110;BME280;59983;52.010;5.420;2022-12-29T06:59:30;100038.88;;;8.94;94.32
72110;BME280;59983;52.010;5.420;2022-12-29T07:01:57;100029.31;;;8.81;95.68
72110;BME280;59983;52.010;5.420;2022-12-29T07:04:24;100025.94;;;8.68;95.90
72110;BME280;59983;52.010;5.420;2022-12-29T07:06:50;100034.72;;;8.65;96.45
72110;BME280;59983;52.010;5.420;2022-12-29T07:09:17;100036.50;;;8.58;97.23
72110;BME280;59983;52.010;5.420;2022-12-29T07:11:43;100034.50;;;8.55;97.94
72110;BME280;59983;52.010;5.420;2022-12-29T07:14:11;100037.03;;;8.47;99.24
72110;BME280;59983;52.010;5.420;2022-12-29T07:16:38;100041.50;;;8.40;100.00
72110;BME280;59983;52.010;5.420;2022-12-29T07:19:04;100058.28;;;8.33;100.00
72110;BME280;59983;52.010;5.420;2022-12-29T07:21:31;100039.97;;;8.27;100.00
72110;BME280;59983;52.010;5.420;2022-12-29T07:23:57;100064.88;;;8.20;100.00
72110;BME280;59983;52.010;5.420;2022-12-29T07:26:24;100042.78;;;8.14;100.00
72110;BME280;59983;52.010;5.420;2022-12-29T07:28:51;100031.84;;;8.11;100.00
72110;BME280;59983;52.010;5.420;2022-12-29T07:31:20;100036.63;;;8.02;100.00
72110;BME280;59983;52.010;5.420;2022-12-29T07:33:48;100044.91;;;7.93;100.00
72110;BME280;59983;52.010;5.420;2022-12-29T07:36:15;100057.91;;;7.87;100.00
72110;BME280;59983;52.010;5.420;2022-12-29T07:38:42;100050.94;;;7.86;100.00
72110;BME280;59983;52.010;5.420;2022-12-29T07:41:09;100063.63;;;7.86;100.00
72110;BME280;59983;52.010;5.420;2022-12-29T07:43:36;100054.72;;;7.85;100.00
72110;BME280;59983;52.010;5.420;2022-12-29T07:46:02;100063.28;;;7.87;100.00
72110;BME280;59983;52.010;5.420;2022-12-29T07:48:29;100062.50;;;7.87;100.00
72110;BME280;59983;52.010;5.420;2022-12-29T07:50:56;100064.94;;;7.92;100.00
72110;BME280;59983;52.010;5.420;2022-12-29T07:53:22;100061.88;;;7.93;100.00
72110;BME280;59983;52.010;5.420;2022-12-29T07:55:49;100067.84;;;7.99;100.00
72110;BME280;59983;52.010;5.420;2022-12-29T07:58:15;100063.22;;;8.00;100.00
72110;BME280;59983;52.010;5.420;2022-12-29T08:00:42;100065.69;;;8.05;100.00
72110;BME280;59983;52.010;5.420;2022-12-29T08:03:08;100081.97;;;8.08;100.00
72110;BME280;59983;52.010;5.420;2022-12-29T08:05:35;100077.53;;;8.16;100.00
72110;BME280;59983;52.010;5.420;2022-12-29T08:08:01;100062.53;;;8.18;100.00
72110;BME280;59983;52.010;5.420;2022-12-29T08:10:28;100065.78;;;8.24;100.00
72110;BME280;59983;52.010;5.420;2022-12-29T08:12:54;100050.06;;;8.30;100.00
72110;BME280;59983;52.010;5.420;2022-12-29T08:15:21;100056.47;;;8.37;100.00
72110;BME280;59983;52.010;5.420;2022-12-29T08:17:57;100051.84;;;8.38;100.00
72110;BME280;59983;52.010;5.420;2022-12-29T08:20:24;100048.81;;;8.39;100.00
72110;BME280;59983;52.010;5.420;2022-12-29T08:22:50;100055.09;;;8.43;100.00
72110;BME280;59983;52.010;5.420;2022-12-29T08:25:17;100047.03;;;8.47;100.00
72110;BME280;59983;52.010;5.420;2022-12-29T08:27:45;100055.63;;;8.49;100.00
72110;BME280;59983;52.010;5.420;2022-12-29T08:30:12;100057.25;;;8.54;100.00
72110;BME280;59983;52.010;5.420;2022-12-29T08:32:39;100061.25;;;8.60;100.00
72110;BME280;59983;52.010;5.420;2022-12-29T08:35:05;100065.97;;;8.63;98.90
72110;BME280;59983;52.010;5.420;2022-12-29T08:37:33;100065.53;;;8.61;99.25
72110;BME280;59983;52.010;5.420;2022-12-29T08:39:59;100062.13;;;8.64;98.78
72110;BME280;59983;52.010;5.420;2022-12-29T08:42:31;100067.88;;;8.62;99.97
72110;BME280;59983;52.010;5.420;2022-12-29T08:44:58;100087.94;;;8.61;98.30
72110;BME280;59983;52.010;5.420;2022-12-29T08:47:25;100065.72;;;8.68;98.45
72110;BME280;59983;52.010;5.420;2022-12-29T08:49:52;100077.97;;;8.65;98.57
72110;BME280;59983;52.010;5.420;2022-12-29T08:52:18;100099.72;;;8.69;98.39
72110;BME280;59983;52.010;5.420;2022-12-29T08:54:45;100076.59;;;8.71;98.79
72110;BME280;59983;52.010;5.420;2022-12-29T08:57:12;100074.19;;;8.66;99.02
72110;BME280;59983;52.010;5.420;2022-12-29T08:59:38;100076.00;;;8.62;98.78
72110;BME280;59983;52.010;5.420;2022-12-29T09:02:05;100087.69;;;8.66;99.33
72110;BME280;59983;52.010;5.420;2022-12-29T09:04:32;100076.53;;;8.68;99.65
72110;BME280;59983;52.010;5.420;2022-12-29T09:06:59;100095.34;;;8.64;100.00
72110;BME280;59983;52.010;5.420;2022-12-29T09:09:25;100077.66;;;8.67;100.00
72110;BME280;59983;52.010;5.420;2022-12-29T09:11:52;100086.97;;;8.69;100.00
72110;BME280;59983;52.010;5.420;2022-12-29T09:14:18;100068.00;;;8.66;100.00
72110;BME280;59983;52.010;5.420;2022-12-29T09:16:45;100075.28;;;8.65;100.00
72110;BME280;59983;52.010;5.420;2022-12-29T09:19:30;100085.06;;;8.70;100.00
72110;BME280;59983;52.010;5.420;2022-12-29T09:21:57;100099.88;;;8.76;99.60
72110;BME280;59983;52.010;5.420;2022-12-29T09:24:23;100099.19;;;8.79;99.05
72110;BME280;59983;52.010;5.420;2022-12-29T09:26:50;100103.72;;;8.75;99.67
72110;BME280;59983;52.010;5.420;2022-12-29T09:29:16;100118.72;;;8.72;100.00
72110;BME280;59983;52.010;5.420;2022-12-29T09:31:43;100125.63;;;8.70;100.00
72110;BME280;59983;52.010;5.420;2022-12-29T09:34:09;100139.13;;;8.70;100.00
72110;BME280;59983;52.010;5.420;2022-12-29T09:36:36;100136.44;;;8.70;100.00
72110;BME280;59983;52.010;5.420;2022-12-29T09:39:02;100142.19;;;8.68;100.00
72110;BME280;59983;52.010;5.420;2022-12-29T09:41:38;100151.44;;;8.67;100.00
72110;BME280;59983;52.010;5.420;2022-12-29T09:44:19;100180.09;;;8.56;100.00
72110;BME280;59983;52.010;5.420;2022-12-29T09:46:49;100157.63;;;8.52;100.00
72110;BME280;59983;52.010;5.420;2022-12-29T09:49:37;100179.47;;;8.47;100.00
72110;BME280;59983;52.010;5.420;2022-12-29T09:52:14;100182.44;;;8.42;100.00
72110;BME280;59983;52.010;5.420;2022-12-29T09:57:31;100193.50;;;8.37;100.00
72110;BME280;59983;52.010;5.420;2022-12-29T10:00:05;100194.94;;;8.34;100.00
72110;BME280;59983;52.010;5.420;2022-12-29T10:02:38;100205.69;;;8.31;100.00
72110;BME280;59983;52.010;5.420;2022-12-29T10:07:52;100200.75;;;8.20;100.00
72110;BME280;59983;52.010;5.420;2022-12-29T10:10:38;100223.84;;;8.18;100.00
72110;BME280;59983;52.010;5.420;2022-12-29T10:13:28;100207.63;;;8.18;100.00
72110;BME280;59983;52.010;5.420;2022-12-29T10:16:06;100240.94;;;8.22;100.00
72110;BME280;59983;52.010;5.420;2022-12-29T10:19:04;100215.03;;;8.21;100.00
72110;BME280;59983;52.010;5.420;2022-12-29T10:21:52;100194.56;;;8.20;100.00
72110;BME280;59983;52.010;5.420;2022-12-29T10:24:24;100205.81;;;8.22;100.00
72110;BME280;59983;52.010;5.420;2022-12-29T10:26:53;100236.31;;;8.22;100.00
72110;BME280;59983;52.010;5.420;2022-12-29T10:29:25;100215.50;;;8.23;100.00
72110;BME280;59983;52.010;5.420;2022-12-29T10:32:04;100225.97;;;8.24;100.00
72110;BME280;59983;52.010;5.420;2022-12-29T10:34:43;100226.38;;;8.27;100.00
72110;BME280;59983;52.010;5.420;2022-12-29T10:39:47;100226.03;;;8.28;100.00
72110;BME280;59983;52.010;5.420;2022-12-29T10:44:47;100244.59;;;8.30;100.00
72110;BME280;59983;52.010;5.420;2022-12-29T10:47:24;100270.97;;;8.33;100.00
72110;BME280;59983;52.010;5.420;2022-12-29T10:49:52;100254.50;;;8.38;100.00
72110;BME280;59983;52.010;5.420;2022-12-29T10:52:20;100262.38;;;8.43;100.00
72110;BME280;59983;52.010;5.420;2022-12-29T10:57:28;100258.41;;;8.52;100.00
72110;BME280;59983;52.010;5.420;2022-12-29T10:59:57;100264.25;;;8.55;100.00
72110;BME280;59983;52.010;5.420;2022-12-29T11:03:05;100279.78;;;8.58;100.00
72110;BME280;59983;52.010;5.420;2022-12-29T11:07:53;100273.75;;;8.64;100.00
72110;BME280;59983;52.010;5.420;2022-12-29T11:13:24;100282.78;;;8.68;100.00
72110;BME280;59983;52.010;5.420;2022-12-29T11:15:50;100291.91;;;8.64;100.00
72110;BME280;59983;52.010;5.420;2022-12-29T11:18:23;100295.31;;;8.61;100.00
72110;BME280;59983;52.010;5.420;2022-12-29T11:20:56;100315.72;;;8.58;100.00
72110;BME280;59983;52.010;5.420;2022-12-29T11:23:37;100311.75;;;8.56;100.00
72110;BME280;59983;52.010;5.420;2022-12-29T11:28:34;100318.56;;;8.49;100.00
72110;BME280;59983;52.010;5.420;2022-12-29T11:31:02;100322.41;;;8.48;100.00
72110;BME280;59983;52.010;5.420;2022-12-29T11:33:30;100339.72;;;8.47;100.00
72110;BME280;59983;52.010;5.420;2022-12-29T11:36:10;100324.53;;;8.43;100.00
72110;BME280;59983;52.010;5.420;2022-12-29T11:38:45;100342.91;;;8.37;100.00
72110;BME280;59983;52.010;5.420;2022-12-29T11:41:18;100379.38;;;8.19;100.00
72110;BME280;59983;52.010;5.420;2022-12-29T11:43:46;100325.03;;;8.08;100.00
72110;BME280;59983;52.010;5.420;2022-12-29T11:46:17;100344.97;;;7.91;100.00
72110;BME280;59983;52.010;5.420;2022-12-29T11:48:46;100337.78;;;7.71;100.00
72110;BME280;59983;52.010;5.420;2022-12-29T11:51:23;100340.16;;;7.60;100.00
72110;BME280;59983;52.010;5.420;2022-12-29T11:53:55;100346.00;;;7.62;100.00
72110;BME280;59983;52.010;5.420;2022-12-29T11:56:34;100342.84;;;7.73;100.00
72110;BME280;59983;52.010;5.420;2022-12-29T12:01:58;100347.22;;;8.02;100.00
72110;BME280;59983;52.010;5.420;2022-12-29T12:04:30;100346.31;;;8.10;100.00
72110;BME280;59983;52.010;5.420;2022-12-29T12:07:09;100354.97;;;8.15;100.00
72110;BME280;59983;52.010;5.420;2022-12-29T12:09:54;100347.09;;;8.22;100.00
72110;BME280;59983;52.010;5.420;2022-12-29T12:12:39;100331.41;;;8.28;100.00
72110;BME280;59983;52.010;5.420;2022-12-29T12:15:13;100345.38;;;8.30;100.00
72110;BME280;59983;52.010;5.420;2022-12-29T12:21:27;100363.75;;;8.37;100.00
72110;BME280;59983;52.010;5.420;2022-12-29T12:24:42;100348.63;;;8.48;100.00
72110;BME280;59983;52.010;5.420;2022-12-29T12:27:17;100361.13;;;8.52;100.00
72110;BME280;59983;52.010;5.420;2022-12-29T12:35:27;100367.94;;;8.62;100.00
72110;BME280;59983;52.010;5.420;2022-12-29T12:38:06;100362.66;;;8.66;100.00
72110;BME280;59983;52.010;5.420;2022-12-29T12:45:55;100374.91;;;8.75;100.00
72110;BME280;59983;52.010;5.420;2022-12-29T12:48:37;100375.00;;;8.79;100.00
72110;BME280;59983;52.010;5.420;2022-12-29T12:57:07;100400.91;;;8.80;100.00
72110;BME280;59983;52.010;5.420;2022-12-29T13:00:00;100394.72;;;8.79;100.00
72110;BME280;59983;52.010;5.420;2022-12-29T13:03:10;100393.50;;;8.77;100.00
72110;BME280;59983;52.010;5.420;2022-12-29T13:08:54;100397.63;;;8.74;100.00
72110;BME280;59983;52.010;5.420;2022-12-29T13:14:32;100397.84;;;8.82;100.00
72110;BME280;59983;52.010;5.420;2022-12-29T13:23:08;100379.97;;;9.05;100.00
72110;BME280;59983;52.010;5.420;2022-12-29T13:25:42;100414.00;;;9.06;100.00
72110;BME280;59983;52.010;5.420;2022-12-29T13:28:22;100406.91;;;9.01;100.00
72110;BME280;59983;52.010;5.420;2022-12-29T13:31:00;100416.06;;;8.97;100.00
72110;BME280;59983;52.010;5.420;2022-12-29T13:36:14;100429.22;;;8.98;100.00
72110;BME280;59983;52.010;5.420;2022-12-29T13:38:46;100426.53;;;8.98;100.00
72110;BME280;59983;52.010;5.420;2022-12-29T13:41:34;100412.91;;;8.95;100.00
72110;BME280;59983;52.010;5.420;2022-12-29T13:44:04;100419.00;;;8.92;100.00
72110;BME280;59983;52.010;5.420;2022-12-29T13:46:37;100419.00;;;8.92;100.00
72110;BME280;59983;52.010;5.420;2022-12-29T13:49:10;100422.50;;;8.92;100.00
72110;BME280;59983;52.010;5.420;2022-12-29T13:51:44;100420.59;;;8.93;100.00
72110;BME280;59983;52.010;5.420;2022-12-29T13:54:38;100408.53;;;8.90;100.00
72110;BME280;59983;52.010;5.420;2022-12-29T13:57:18;100417.25;;;8.84;100.00
72110;BME280;59983;52.010;5.420;2022-12-29T14:00:16;100429.88;;;8.79;100.00
72110;BME280;59983;52.010;5.420;2022-12-29T14:07:44;100441.16;;;8.69;100.00
72110;BME280;59983;52.010;5.420;2022-12-29T14:13:18;100446.47;;;8.54;100.00
72110;BME280;59983;52.010;5.420;2022-12-29T14:15:51;100445.47;;;8.46;100.00
72110;BME280;59983;52.010;5.420;2022-12-29T14:18:21;100459.31;;;8.44;100.00
72110;BME280;59983;52.010;5.420;2022-12-29T14:20:55;100457.19;;;8.38;100.00
72110;BME280;59983;52.010;5.420;2022-12-29T14:28:37;100453.34;;;8.14;100.00
72110;BME280;59983;52.010;5.420;2022-12-29T14:33:41;100437.38;;;8.09;100.00
72110;BME280;59983;52.010;5.420;2022-12-29T14:36:36;100430.50;;;8.12;100.00
72110;BME280;59983;52.010;5.420;2022-12-29T14:39:04;100431.75;;;8.14;100.00
72110;BME280;59983;52.010;5.420;2022-12-29T14:42:03;100431.41;;;8.16;100.00
72110;BME280;59983;52.010;5.420;2022-12-29T14:44:32;100440.63;;;8.15;100.00
72110;BME280;59983;52.010;5.420;2022-12-29T14:47:03;100439.94;;;8.18;100.00
72110;BME280;59983;52.010;5.420;2022-12-29T14:49:40;100440.28;;;8.16;100.00
72110;BME280;59983;52.010;5.420;2022-12-29T14:52:25;100450.41;;;8.19;100.00
72110;BME280;59983;52.010;5.420;2022-12-29T14:54:57;100445.78;;;8.20;100.00